sensor_id;sensor_type;location;lat;lon;timestamp;P1;durP1;ratioP1;P2;durP2;ratioP2
65073;SDS011;52218;51.224;-2.328;2022-12-11T00:02:45;6.68;;;4.07;;
65073;SDS011;52218;51.224;-2.328;2022-12-11T00:06:27;7.25;;;4.45;;
65073;SDS011;52218;51.224;-2.328;2022-12-11T00:10:09;7.68;;;4.22;;
65073;SDS011;52218;51.224;-2.328;2022-12-11T00:13:51;6.85;;;4.60;;
65073;SDS011;52218;51.224;-2.328;2022-12-11T00:17:33;6.63;;;4.13;;
65073;SDS011;52218;51.224;-2.328;2022-12-11T00:21:15;8.32;;;4.47;;
65073;SDS011;52218;51.224;-2.328;2022-12-11T00:24:57;10.93;;;4.65;;
65073;SDS011;52218;51.224;-2.328;2022-12-11T00:28:39;12.30;;;4.75;;
65073;SDS011;52218;51.224;-2.328;2022-12-11T00:32:22;16.95;;;5.15;;
65073;SDS011;52218;51.224;-2.328;2022-12-11T00:36:09;7.75;;;4.57;;
65073;SDS011;52218;51.224;-2.328;2022-12-11T00:39:52;11.60;;;4.50;;
65073;SDS011;52218;51.224;-2.328;2022-12-11T00:43:34;11.02;;;4.28;;
65073;SDS011;52218;51.224;-2.328;2022-12-11T00:47:17;9.55;;;4.43;;
65073;SDS011;52218;51.224;-2.328;2022-12-11T00:50:59;11.88;;;4.90;;
65073;SDS011;52218;51.224;-2.328;2022-12-11T00:54:41;11.55;;;4.57;;
65073;SDS011;52218;51.224;-2.328;2022-12-11T00:58:23;11.07;;;3.70;;
65073;SDS011;52218;51.224;-2.328;2022-12-11T01:02:05;6.32;;;4.10;;
65073;SDS011;52218;51.224;-2.328;2022-12-11T01:05:51;8.10;;;3.83;;
65073;SDS011;52218;51.224;-2.328;2022-12-11T01:09:34;9.80;;;4.80;;
65073;SDS011;52218;51.224;-2.328;2022-12-11T01:13:35;9.55;;;5.03;;
65073;SDS011;52218;51.224;-2.328;2022-12-11T01:17:18;9.13;;;4.90;;
65073;SDS011;52218;51.224;-2.328;2022-12-11T01:21:04;8.88;;;5.15;;
65073;SDS011;52218;51.224;-2.328;2022-12-11T01:24:50;10.93;;;5.18;;
65073;SDS011;52218;51.224;-2.328;2022-12-11T01:28:32;10.63;;;5.18;;
65073;SDS011;52218;51.224;-2.328;2022-12-11T01:32:14;10.32;;;4.70;;
65073;SDS011;52218;51.224;-2.328;2022-12-11T01:35:56;8.80;;;4.25;;
65073;SDS011;52218;51.224;-2.328;2022-12-11T01:39:38;8.60;;;4.47;;
65073;SDS011;52218;51.224;-2.328;2022-12-11T01:43:20;8.20;;;4.57;;
65073;SDS011;52218;51.224;-2.328;2022-12-11T01:47:02;7.88;;;4.47;;
65073;SDS011;52218;51.224;-2.328;2022-12-11T01:50:49;8.40;;;4.45;;
65073;SDS011;52218;51.224;-2.328;2022-12-11T01:54:38;6.93;;;4.40;;
65073;SDS011;52218;51.224;-2.328;2022-12-11T01:58:21;7.25;;;4.03;;
65073;SDS011;52218;51.224;-2.328;2022-12-11T02:02:08;9.20;;;4.72;;
65073;SDS011;52218;51.224;-2.328;2022-12-11T02:05:59;7.80;;;4.20;;
65073;SDS011;52218;51.224;-2.328;2022-12-11T02:09:42;7.82;;;4.47;;
65073;SDS011;52218;51.224;-2.328;2022-12-11T02:21:08;19.85;;;8.70;;
65073;SDS011;52218;51.224;-2.328;2022-12-11T02:25:17;15.25;;;8.48;;
65073;SDS011;52218;51.224;-2.328;2022-12-11T02:29:10;15.50;;;9.05;;
65073;SDS011;52218;51.224;-2.328;2022-12-11T02:32:59;14.32;;;7.78;;
65073;SDS011;52218;51.224;-2.328;2022-12-11T02:36:45;15.90;;;7.85;;
65073;SDS011;52218;51.224;-2.328;2022-12-11T02:40:34;10.77;;;7.28;;
65073;SDS011;52218;51.224;-2.328;2022-12-11T02:44:21;9.82;;;6.90;;
65073;SDS011;52218;51.224;-2.328;2022-12-11T02:48:07;11.27;;;7.25;;
65073;SDS011;52218;51.224;-2.328;2022-12-11T02:51:52;9.38;;;6.90;;
65073;SDS011;52218;51.224;-2.328;2022-12-11T02:55:37;11.02;;;6.97;;
65073;SDS011;52218;51.224;-2.328;2022-12-11T02:59:25;14.00;;;7.80;;
65073;SDS011;52218;51.224;-2.328;2022-12-11T03:03:17;13.80;;;8.03;;
65073;SDS011;52218;51.224;-2.328;2022-12-11T03:07:01;14.65;;;7.38;;
65073;SDS011;52218;51.224;-2.328;2022-12-11T03:10:52;10.80;;;6.93;;
65073;SDS011;52218;51.224;-2.328;2022-12-11T03:14:35;11.55;;;7.43;;
65073;SDS011;52218;51.224;-2.328;2022-12-11T03:18:22;11.82;;;6.95;;
65073;SDS011;52218;51.224;-2.328;2022-12-11T03:22:46;12.07;;;7.07;;
65073;SDS011;52218;51.224;-2.328;2022-12-11T03:27:00;11.93;;;6.47;;
65073;SDS011;52218;51.224;-2.328;2022-12-11T03:30:51;11.40;;;6.93;;
65073;SDS011;52218;51.224;-2.328;2022-12-11T03:34:37;13.15;;;7.15;;
65073;SDS011;52218;51.224;-2.328;2022-12-11T03:38:30;11.55;;;6.78;;
65073;SDS011;52218;51.224;-2.328;2022-12-11T03:42:24;9.23;;;6.88;;
65073;SDS011;52218;51.224;-2.328;2022-12-11T03:46:07;11.88;;;7.47;;
65073;SDS011;52218;51.224;-2.328;2022-12-11T03:49:52;11.73;;;7.07;;
65073;SDS011;52218;51.224;-2.328;2022-12-11T03:53:37;12.55;;;7.72;;
65073;SDS011;52218;51.224;-2.328;2022-12-11T03:57:20;11.90;;;7.47;;
65073;SDS011;52218;51.224;-2.328;2022-12-11T04:01:09;12.40;;;7.22;;
65073;SDS011;52218;51.224;-2.328;2022-12-11T04:04:52;10.13;;;6.50;;
65073;SDS011;52218;51.224;-2.328;2022-12-11T04:08:34;10.77;;;7.55;;
65073;SDS011;52218;51.224;-2.328;2022-12-11T04:12:16;12.02;;;7.03;;
65073;SDS011;52218;51.224;-2.328;2022-12-11T04:15:58;13.25;;;6.38;;
65073;SDS011;52218;51.224;-2.328;2022-12-11T04:19:40;10.93;;;6.80;;
65073;SDS011;52218;51.224;-2.328;2022-12-11T04:23:41;9.57;;;6.57;;
65073;SDS011;52218;51.224;-2.328;2022-12-11T04:27:41;10.95;;;6.68;;
65073;SDS011;52218;51.224;-2.328;2022-12-11T04:31:29;9.85;;;6.55;;
65073;SDS011;52218;51.224;-2.328;2022-12-11T04:35:12;9.57;;;6.72;;
65073;SDS011;52218;51.224;-2.328;2022-12-11T04:38:54;9.27;;;6.78;;
65073;SDS011;52218;51.224;-2.328;2022-12-11T04:42:36;9.90;;;6.55;;
65073;SDS011;52218;51.224;-2.328;2022-12-11T04:46:19;7.53;;;5.78;;
65073;SDS011;52218;51.224;-2.328;2022-12-11T04:50:04;8.45;;;6.05;;
65073;SDS011;52218;51.224;-2.328;2022-12-11T04:53:47;10.50;;;6.47;;
65073;SDS011;52218;51.224;-2.328;2022-12-11T04:57:30;9.52;;;6.80;;
65073;SDS011;52218;51.224;-2.328;2022-12-11T05:01:15;8.50;;;6.30;;
65073;SDS011;52218;51.224;-2.328;2022-12-11T05:04:59;7.18;;;5.70;;
65073;SDS011;52218;51.224;-2.328;2022-12-11T05:08:42;8.65;;;6.15;;
65073;SDS011;52218;51.224;-2.328;2022-12-11T05:12:25;9.15;;;5.72;;
65073;SDS011;52218;51.224;-2.328;2022-12-11T05:16:08;7.97;;;6.00;;
65073;SDS011;52218;51.224;-2.328;2022-12-11T05:19:52;8.77;;;6.53;;
65073;SDS011;52218;51.224;-2.328;2022-12-11T05:23:34;8.65;;;6.15;;
65073;SDS011;52218;51.224;-2.328;2022-12-11T05:27:16;9.43;;;6.25;;
65073;SDS011;52218;51.224;-2.328;2022-12-11T05:30:59;8.57;;;6.53;;
65073;SDS011;52218;51.224;-2.328;2022-12-11T05:34:46;8.70;;;6.18;;
65073;SDS011;52218;51.224;-2.328;2022-12-11T05:38:30;9.73;;;6.95;;
65073;SDS011;52218;51.224;-2.328;2022-12-11T05:42:12;9.50;;;6.63;;
65073;SDS011;52218;51.224;-2.328;2022-12-11T05:45:54;9.77;;;6.50;;
65073;SDS011;52218;51.224;-2.328;2022-12-11T05:49:37;12.13;;;6.45;;
65073;SDS011;52218;51.224;-2.328;2022-12-11T05:53:19;9.52;;;6.50;;
65073;SDS011;52218;51.224;-2.328;2022-12-11T05:57:01;10.77;;;6.97;;
65073;SDS011;52218;51.224;-2.328;2022-12-11T06:00:43;8.40;;;6.05;;
65073;SDS011;52218;51.224;-2.328;2022-12-11T06:04:25;9.38;;;6.95;;
65073;SDS011;52218;51.224;-2.328;2022-12-11T06:08:07;9.90;;;6.90;;
65073;SDS011;52218;51.224;-2.328;2022-12-11T06:11:49;9.18;;;6.70;;
65073;SDS011;52218;51.224;-2.328;2022-12-11T06:15:31;9.85;;;7.00;;
65073;SDS011;52218;51.224;-2.328;2022-12-11T06:19:14;10.27;;;6.95;;
65073;SDS011;52218;51.224;-2.328;2022-12-11T06:22:58;10.57;;;7.18;;
65073;SDS011;52218;51.224;-2.328;2022-12-11T06:26:41;12.23;;;7.30;;
65073;SDS011;52218;51.224;-2.328;2022-12-11T06:30:23;9.82;;;7.10;;
65073;SDS011;52218;51.224;-2.328;2022-12-11T06:34:19;11.60;;;8.00;;
65073;SDS011;52218;51.224;-2.328;2022-12-11T06:38:01;10.55;;;7.35;;
65073;SDS011;52218;51.224;-2.328;2022-12-11T06:41:43;10.75;;;7.50;;
65073;SDS011;52218;51.224;-2.328;2022-12-11T06:45:25;11.73;;;7.78;;
65073;SDS011;52218;51.224;-2.328;2022-12-11T06:49:07;12.25;;;7.93;;
65073;SDS011;52218;51.224;-2.328;2022-12-11T06:52:49;14.73;;;8.98;;
65073;SDS011;52218;51.224;-2.328;2022-12-11T06:56:32;12.32;;;8.20;;
65073;SDS011;52218;51.224;-2.328;2022-12-11T07:00:15;12.52;;;8.32;;
65073;SDS011;52218;51.224;-2.328;2022-12-11T07:03:57;11.45;;;7.57;;
65073;SDS011;52218;51.224;-2.328;2022-12-11T07:07:40;12.30;;;7.40;;
65073;SDS011;52218;51.224;-2.328;2022-12-11T07:11:22;15.23;;;8.20;;
65073;SDS011;52218;51.224;-2.328;2022-12-11T07:15:05;11.23;;;7.53;;
65073;SDS011;52218;51.224;-2.328;2022-12-11T07:18:48;11.88;;;7.30;;
65073;SDS011;52218;51.224;-2.328;2022-12-11T07:22:31;10.43;;;7.00;;
65073;SDS011;52218;51.224;-2.328;2022-12-11T07:26:14;10.63;;;7.00;;
65073;SDS011;52218;51.224;-2.328;2022-12-11T07:29:58;12.00;;;7.72;;
65073;SDS011;52218;51.224;-2.328;2022-12-11T07:33:40;14.05;;;7.60;;
65073;SDS011;52218;51.224;-2.328;2022-12-11T07:37:23;11.43;;;7.30;;
65073;SDS011;52218;51.224;-2.328;2022-12-11T07:41:06;10.85;;;6.95;;
65073;SDS011;52218;51.224;-2.328;2022-12-11T07:44:51;11.00;;;6.88;;
65073;SDS011;52218;51.224;-2.328;2022-12-11T07:48:38;10.35;;;6.38;;
65073;SDS011;52218;51.224;-2.328;2022-12-11T07:52:21;9.60;;;6.18;;
65073;SDS011;52218;51.224;-2.328;2022-12-11T07:56:03;9.88;;;6.47;;
65073;SDS011;52218;51.224;-2.328;2022-12-11T07:59:45;8.45;;;6.18;;
65073;SDS011;52218;51.224;-2.328;2022-12-11T08:03:27;10.10;;;6.72;;
65073;SDS011;52218;51.224;-2.328;2022-12-11T08:07:09;9.07;;;5.93;;
65073;SDS011;52218;51.224;-2.328;2022-12-11T08:10:53;10.40;;;6.43;;
65073;SDS011;52218;51.224;-2.328;2022-12-11T08:14:35;10.57;;;6.15;;
65073;SDS011;52218;51.224;-2.328;2022-12-11T08:18:17;9.63;;;6.30;;
65073;SDS011;52218;51.224;-2.328;2022-12-11T08:21:59;9.00;;;6.03;;
65073;SDS011;52218;51.224;-2.328;2022-12-11T08:25:41;9.05;;;6.10;;
65073;SDS011;52218;51.224;-2.328;2022-12-11T08:29:23;9.77;;;5.90;;
65073;SDS011;52218;51.224;-2.328;2022-12-11T08:33:05;10.02;;;5.70;;
65073;SDS011;52218;51.224;-2.328;2022-12-11T08:36:47;7.65;;;5.60;;
65073;SDS011;52218;51.224;-2.328;2022-12-11T08:40:29;9.35;;;5.22;;
65073;SDS011;52218;51.224;-2.328;2022-12-11T08:44:11;7.28;;;5.05;;
65073;SDS011;52218;51.224;-2.328;2022-12-11T08:47:57;7.97;;;5.53;;
65073;SDS011;52218;51.224;-2.328;2022-12-11T08:51:40;9.00;;;5.40;;
65073;SDS011;52218;51.224;-2.328;2022-12-11T08:55:22;6.50;;;4.35;;
65073;SDS011;52218;51.224;-2.328;2022-12-11T08:59:04;7.53;;;5.60;;
65073;SDS011;52218;51.224;-2.328;2022-12-11T09:02:46;8.65;;;5.25;;
65073;SDS011;52218;51.224;-2.328;2022-12-11T09:06:29;8.35;;;5.45;;
65073;SDS011;52218;51.224;-2.328;2022-12-11T09:10:13;7.95;;;5.60;;
65073;SDS011;52218;51.224;-2.328;2022-12-11T09:13:55;9.20;;;6.18;;
65073;SDS011;52218;51.224;-2.328;2022-12-11T09:17:42;8.65;;;6.15;;
65073;SDS011;52218;51.224;-2.328;2022-12-11T09:21:26;8.55;;;6.07;;
65073;SDS011;52218;51.224;-2.328;2022-12-11T09:25:10;8.27;;;6.03;;
65073;SDS011;52218;51.224;-2.328;2022-12-11T09:28:52;9.57;;;5.80;;
65073;SDS011;52218;51.224;-2.328;2022-12-11T09:32:35;7.60;;;5.43;;
65073;SDS011;52218;51.224;-2.328;2022-12-11T09:36:17;8.73;;;6.10;;
65073;SDS011;52218;51.224;-2.328;2022-12-11T09:39:59;9.57;;;5.95;;
65073;SDS011;52218;51.224;-2.328;2022-12-11T09:47:51;9.60;;;5.95;;
65073;SDS011;52218;51.224;-2.328;2022-12-11T09:51:40;8.35;;;6.15;;
65073;SDS011;52218;51.224;-2.328;2022-12-11T09:55:36;10.35;;;6.38;;
65073;SDS011;52218;51.224;-2.328;2022-12-11T10:07:32;11.35;;;7.22;;
65073;SDS011;52218;51.224;-2.328;2022-12-11T10:11:21;10.48;;;7.07;;
65073;SDS011;52218;51.224;-2.328;2022-12-11T10:19:18;11.27;;;7.22;;
65073;SDS011;52218;51.224;-2.328;2022-12-11T10:23:09;12.07;;;7.50;;
65073;SDS011;52218;51.224;-2.328;2022-12-11T10:27:11;10.63;;;7.30;;
65073;SDS011;52218;51.224;-2.328;2022-12-11T10:34:58;11.38;;;7.15;;
65073;SDS011;52218;51.224;-2.328;2022-12-11T10:38:45;9.13;;;6.55;;
65073;SDS011;52218;51.224;-2.328;2022-12-11T10:42:27;9.38;;;6.45;;
65073;SDS011;52218;51.224;-2.328;2022-12-11T10:46:17;9.43;;;6.60;;
65073;SDS011;52218;51.224;-2.328;2022-12-11T10:50:03;9.30;;;6.72;;
65073;SDS011;52218;51.224;-2.328;2022-12-11T10:53:50;9.95;;;6.63;;
65073;SDS011;52218;51.224;-2.328;2022-12-11T10:57:34;9.52;;;7.35;;
65073;SDS011;52218;51.224;-2.328;2022-12-11T11:01:22;10.10;;;6.57;;
65073;SDS011;52218;51.224;-2.328;2022-12-11T11:05:13;7.78;;;6.40;;
65073;SDS011;52218;51.224;-2.328;2022-12-11T11:13:11;8.38;;;6.40;;
65073;SDS011;52218;51.224;-2.328;2022-12-11T11:16:54;9.07;;;6.22;;
65073;SDS011;52218;51.224;-2.328;2022-12-11T11:20:41;8.25;;;6.28;;
65073;SDS011;52218;51.224;-2.328;2022-12-11T11:28:21;8.20;;;5.80;;
65073;SDS011;52218;51.224;-2.328;2022-12-11T11:32:13;10.15;;;6.30;;
65073;SDS011;52218;51.224;-2.328;2022-12-11T11:36:04;8.15;;;5.68;;
65073;SDS011;52218;51.224;-2.328;2022-12-11T11:39:47;7.15;;;5.55;;
65073;SDS011;52218;51.224;-2.328;2022-12-11T11:43:35;8.13;;;5.35;;
65073;SDS011;52218;51.224;-2.328;2022-12-11T11:47:21;7.32;;;5.63;;
65073;SDS011;52218;51.224;-2.328;2022-12-11T11:51:12;7.97;;;5.72;;
65073;SDS011;52218;51.224;-2.328;2022-12-11T11:55:12;8.35;;;5.68;;
65073;SDS011;52218;51.224;-2.328;2022-12-11T11:59:22;7.00;;;5.75;;
65073;SDS011;52218;51.224;-2.328;2022-12-11T12:03:15;8.95;;;5.20;;
65073;SDS011;52218;51.224;-2.328;2022-12-11T12:11:27;9.02;;;6.43;;
65073;SDS011;52218;51.224;-2.328;2022-12-11T12:27:39;7.85;;;5.45;;
65073;SDS011;52218;51.224;-2.328;2022-12-11T12:39:47;7.45;;;5.43;;
65073;SDS011;52218;51.224;-2.328;2022-12-11T12:43:46;8.73;;;6.30;;
65073;SDS011;52218;51.224;-2.328;2022-12-11T12:47:34;8.90;;;6.95;;
65073;SDS011;52218;51.224;-2.328;2022-12-11T12:51:18;8.88;;;6.70;;
65073;SDS011;52218;51.224;-2.328;2022-12-11T12:55:14;9.77;;;7.40;;
65073;SDS011;52218;51.224;-2.328;2022-12-11T12:59:03;8.90;;;6.43;;
65073;SDS011;52218;51.224;-2.328;2022-12-11T13:02:48;10.10;;;6.80;;
65073;SDS011;52218;51.224;-2.328;2022-12-11T13:10:21;10.13;;;7.35;;
65073;SDS011;52218;51.224;-2.328;2022-12-11T13:14:07;9.68;;;7.05;;
65073;SDS011;52218;51.224;-2.328;2022-12-11T13:25:58;11.00;;;7.93;;
65073;SDS011;52218;51.224;-2.328;2022-12-11T13:29:42;10.02;;;8.02;;
65073;SDS011;52218;51.224;-2.328;2022-12-11T13:33:24;12.60;;;8.43;;
65073;SDS011;52218;51.224;-2.328;2022-12-11T13:37:26;10.68;;;8.20;;
65073;SDS011;52218;51.224;-2.328;2022-12-11T13:41:21;11.57;;;8.40;;
65073;SDS011;52218;51.224;-2.328;2022-12-11T13:45:04;10.60;;;8.20;;
65073;SDS011;52218;51.224;-2.328;2022-12-11T13:48:49;11.18;;;8.38;;
65073;SDS011;52218;51.224;-2.328;2022-12-11T13:52:35;12.50;;;8.85;;
65073;SDS011;52218;51.224;-2.328;2022-12-11T13:56:19;11.63;;;8.73;;
65073;SDS011;52218;51.224;-2.328;2022-12-11T14:00:02;13.10;;;8.73;;
65073;SDS011;52218;51.224;-2.328;2022-12-11T14:04:02;13.50;;;9.15;;
65073;SDS011;52218;51.224;-2.328;2022-12-11T14:07:49;13.82;;;9.43;;
65073;SDS011;52218;51.224;-2.328;2022-12-11T14:11:39;12.97;;;9.60;;
65073;SDS011;52218;51.224;-2.328;2022-12-11T14:15:22;11.82;;;9.10;;
65073;SDS011;52218;51.224;-2.328;2022-12-11T14:19:05;12.10;;;8.88;;
65073;SDS011;52218;51.224;-2.328;2022-12-11T14:22:48;12.88;;;9.45;;
65073;SDS011;52218;51.224;-2.328;2022-12-11T14:26:32;11.90;;;9.23;;
65073;SDS011;52218;51.224;-2.328;2022-12-11T14:30:19;13.52;;;9.73;;
65073;SDS011;52218;51.224;-2.328;2022-12-11T14:34:12;13.48;;;9.90;;
65073;SDS011;52218;51.224;-2.328;2022-12-11T14:37:59;12.15;;;9.05;;
65073;SDS011;52218;51.224;-2.328;2022-12-11T14:45:33;13.05;;;9.40;;
65073;SDS011;52218;51.224;-2.328;2022-12-11T14:49:19;15.18;;;10.70;;
65073;SDS011;52218;51.224;-2.328;2022-12-11T14:53:13;13.57;;;9.82;;
65073;SDS011;52218;51.224;-2.328;2022-12-11T14:57:01;12.60;;;9.57;;
65073;SDS011;52218;51.224;-2.328;2022-12-11T15:01:03;13.80;;;9.60;;
65073;SDS011;52218;51.224;-2.328;2022-12-11T15:05:02;14.23;;;8.95;;
65073;SDS011;52218;51.224;-2.328;2022-12-11T15:09:46;15.93;;;10.38;;
65073;SDS011;52218;51.224;-2.328;2022-12-11T15:13:08;14.60;;;10.10;;
65073;SDS011;52218;51.224;-2.328;2022-12-11T15:16:51;14.20;;;10.27;;
65073;SDS011;52218;51.224;-2.328;2022-12-11T15:20:36;14.02;;;10.18;;
65073;SDS011;52218;51.224;-2.328;2022-12-11T15:24:22;14.15;;;9.93;;
65073;SDS011;52218;51.224;-2.328;2022-12-11T15:28:29;14.63;;;10.02;;
65073;SDS011;52218;51.224;-2.328;2022-12-11T15:32:15;15.20;;;11.38;;
65073;SDS011;52218;51.224;-2.328;2022-12-11T15:36:03;16.73;;;10.65;;
65073;SDS011;52218;51.224;-2.328;2022-12-11T15:39:47;14.57;;;10.40;;
65073;SDS011;52218;51.224;-2.328;2022-12-11T15:43:30;14.95;;;9.57;;
65073;SDS011;52218;51.224;-2.328;2022-12-11T15:47:18;15.18;;;10.13;;
65073;SDS011;52218;51.224;-2.328;2022-12-11T15:51:06;16.05;;;10.80;;
65073;SDS011;52218;51.224;-2.328;2022-12-11T15:54:49;17.55;;;11.13;;
65073;SDS011;52218;51.224;-2.328;2022-12-11T15:58:31;14.02;;;10.73;;
65073;SDS011;52218;51.224;-2.328;2022-12-11T16:02:13;14.18;;;10.15;;
65073;SDS011;52218;51.224;-2.328;2022-12-11T16:05:56;14.38;;;9.45;;
65073;SDS011;52218;51.224;-2.328;2022-12-11T16:09:38;14.07;;;10.18;;
65073;SDS011;52218;51.224;-2.328;2022-12-11T16:13:20;13.95;;;9.90;;
65073;SDS011;52218;51.224;-2.328;2022-12-11T16:17:03;14.63;;;9.50;;
65073;SDS011;52218;51.224;-2.328;2022-12-11T16:20:47;13.27;;;9.70;;
65073;SDS011;52218;51.224;-2.328;2022-12-11T16:24:29;12.75;;;9.80;;
65073;SDS011;52218;51.224;-2.328;2022-12-11T16:28:12;14.45;;;9.88;;
65073;SDS011;52218;51.224;-2.328;2022-12-11T16:31:56;15.50;;;9.32;;
65073;SDS011;52218;51.224;-2.328;2022-12-11T16:35:38;14.57;;;9.70;;
65073;SDS011;52218;51.224;-2.328;2022-12-11T16:39:21;14.57;;;9.55;;
65073;SDS011;52218;51.224;-2.328;2022-12-11T16:43:04;12.18;;;8.90;;
65073;SDS011;52218;51.224;-2.328;2022-12-11T16:46:46;13.65;;;9.55;;
65073;SDS011;52218;51.224;-2.328;2022-12-11T16:50:28;12.40;;;8.68;;
65073;SDS011;52218;51.224;-2.328;2022-12-11T16:54:12;13.90;;;9.65;;
65073;SDS011;52218;51.224;-2.328;2022-12-11T16:57:54;13.77;;;9.73;;
65073;SDS011;52218;51.224;-2.328;2022-12-11T17:01:36;12.52;;;9.45;;
65073;SDS011;52218;51.224;-2.328;2022-12-11T17:05:19;12.27;;;9.20;;
65073;SDS011;52218;51.224;-2.328;2022-12-11T17:09:01;12.07;;;9.05;;
65073;SDS011;52218;51.224;-2.328;2022-12-11T17:12:43;13.18;;;8.85;;
65073;SDS011;52218;51.224;-2.328;2022-12-11T17:16:25;11.98;;;8.30;;
65073;SDS011;52218;51.224;-2.328;2022-12-11T17:20:10;12.57;;;9.20;;
65073;SDS011;52218;51.224;-2.328;2022-12-11T17:23:52;13.45;;;8.70;;
65073;SDS011;52218;51.224;-2.328;2022-12-11T17:27:34;12.80;;;8.77;;
65073;SDS011;52218;51.224;-2.328;2022-12-11T17:31:17;12.40;;;9.15;;
65073;SDS011;52218;51.224;-2.328;2022-12-11T17:35:00;12.55;;;8.93;;
65073;SDS011;52218;51.224;-2.328;2022-12-11T17:38:42;11.68;;;8.85;;
65073;SDS011;52218;51.224;-2.328;2022-12-11T17:42:24;12.88;;;9.07;;
65073;SDS011;52218;51.224;-2.328;2022-12-11T17:46:06;13.70;;;9.25;;
65073;SDS011;52218;51.224;-2.328;2022-12-11T17:49:50;11.95;;;8.82;;
65073;SDS011;52218;51.224;-2.328;2022-12-11T17:53:32;11.75;;;8.65;;
65073;SDS011;52218;51.224;-2.328;2022-12-11T17:57:16;13.68;;;9.48;;
65073;SDS011;52218;51.224;-2.328;2022-12-11T18:00:58;12.88;;;9.15;;
65073;SDS011;52218;51.224;-2.328;2022-12-11T18:04:40;14.07;;;9.05;;
65073;SDS011;52218;51.224;-2.328;2022-12-11T18:08:23;13.68;;;9.10;;
65073;SDS011;52218;51.224;-2.328;2022-12-11T18:12:08;14.80;;;9.82;;
65073;SDS011;52218;51.224;-2.328;2022-12-11T18:16:04;13.65;;;9.20;;
65073;SDS011;52218;51.224;-2.328;2022-12-11T18:19:48;13.45;;;9.27;;
65073;SDS011;52218;51.224;-2.328;2022-12-11T18:23:30;12.35;;;9.10;;
65073;SDS011;52218;51.224;-2.328;2022-12-11T18:27:13;12.90;;;8.95;;
65073;SDS011;52218;51.224;-2.328;2022-12-11T18:30:57;14.55;;;9.43;;
65073;SDS011;52218;51.224;-2.328;2022-12-11T18:34:41;14.55;;;9.85;;
65073;SDS011;52218;51.224;-2.328;2022-12-11T18:38:23;15.18;;;9.70;;
65073;SDS011;52218;51.224;-2.328;2022-12-11T18:42:05;14.85;;;9.57;;
65073;SDS011;52218;51.224;-2.328;2022-12-11T18:46:11;13.88;;;9.50;;
65073;SDS011;52218;51.224;-2.328;2022-12-11T18:49:56;13.48;;;9.52;;
65073;SDS011;52218;51.224;-2.328;2022-12-11T18:53:45;14.15;;;9.52;;
65073;SDS011;52218;51.224;-2.328;2022-12-11T18:57:27;15.60;;;9.48;;
65073;SDS011;52218;51.224;-2.328;2022-12-11T19:01:11;14.35;;;9.75;;
65073;SDS011;52218;51.224;-2.328;2022-12-11T19:05:04;14.43;;;9.60;;
65073;SDS011;52218;51.224;-2.328;2022-12-11T19:08:46;13.45;;;9.05;;
65073;SDS011;52218;51.224;-2.328;2022-12-11T19:12:28;11.73;;;8.30;;
65073;SDS011;52218;51.224;-2.328;2022-12-11T19:16:19;12.88;;;9.48;;
65073;SDS011;52218;51.224;-2.328;2022-12-11T19:20:03;13.68;;;9.57;;
65073;SDS011;52218;51.224;-2.328;2022-12-11T19:24:07;14.68;;;10.13;;
65073;SDS011;52218;51.224;-2.328;2022-12-11T19:27:51;13.65;;;9.48;;
65073;SDS011;52218;51.224;-2.328;2022-12-11T19:31:34;12.60;;;8.60;;
65073;SDS011;52218;51.224;-2.328;2022-12-11T19:35:16;13.55;;;9.52;;
65073;SDS011;52218;51.224;-2.328;2022-12-11T19:38:58;13.15;;;8.55;;
65073;SDS011;52218;51.224;-2.328;2022-12-11T19:42:44;12.07;;;8.95;;
65073;SDS011;52218;51.224;-2.328;2022-12-11T19:46:26;13.02;;;8.70;;
65073;SDS011;52218;51.224;-2.328;2022-12-11T19:50:09;11.20;;;8.18;;
65073;SDS011;52218;51.224;-2.328;2022-12-11T19:53:51;11.68;;;7.78;;
65073;SDS011;52218;51.224;-2.328;2022-12-11T19:57:34;10.57;;;8.15;;
65073;SDS011;52218;51.224;-2.328;2022-12-11T20:01:17;11.77;;;8.02;;
65073;SDS011;52218;51.224;-2.328;2022-12-11T20:05:11;11.93;;;8.63;;
65073;SDS011;52218;51.224;-2.328;2022-12-11T20:08:54;9.90;;;7.25;;
65073;SDS011;52218;51.224;-2.328;2022-12-11T20:12:36;11.05;;;7.38;;
65073;SDS011;52218;51.224;-2.328;2022-12-11T20:16:18;8.63;;;6.82;;
65073;SDS011;52218;51.224;-2.328;2022-12-11T20:20:19;10.50;;;7.25;;
65073;SDS011;52218;51.224;-2.328;2022-12-11T20:24:02;11.13;;;7.35;;
65073;SDS011;52218;51.224;-2.328;2022-12-11T20:27:44;10.45;;;7.47;;
65073;SDS011;52218;51.224;-2.328;2022-12-11T20:31:26;12.10;;;8.55;;
65073;SDS011;52218;51.224;-2.328;2022-12-11T20:35:08;10.00;;;7.65;;
65073;SDS011;52218;51.224;-2.328;2022-12-11T20:38:52;11.13;;;7.68;;
65073;SDS011;52218;51.224;-2.328;2022-12-11T20:42:34;9.30;;;7.22;;
65073;SDS011;52218;51.224;-2.328;2022-12-11T20:46:16;10.75;;;7.72;;
65073;SDS011;52218;51.224;-2.328;2022-12-11T20:49:59;9.50;;;7.18;;
65073;SDS011;52218;51.224;-2.328;2022-12-11T20:53:41;10.25;;;7.28;;
65073;SDS011;52218;51.224;-2.328;2022-12-11T20:57:24;10.82;;;7.57;;
65073;SDS011;52218;51.224;-2.328;2022-12-11T21:01:06;9.85;;;7.47;;
65073;SDS011;52218;51.224;-2.328;2022-12-11T21:04:48;10.02;;;7.35;;
65073;SDS011;52218;51.224;-2.328;2022-12-11T21:08:30;11.98;;;7.78;;
65073;SDS011;52218;51.224;-2.328;2022-12-11T21:12:12;11.05;;;8.40;;
65073;SDS011;52218;51.224;-2.328;2022-12-11T21:15:54;12.27;;;8.07;;
65073;SDS011;52218;51.224;-2.328;2022-12-11T21:19:37;10.70;;;7.55;;
65073;SDS011;52218;51.224;-2.328;2022-12-11T21:23:19;9.32;;;6.65;;
65073;SDS011;52218;51.224;-2.328;2022-12-11T21:27:01;10.02;;;7.15;;
65073;SDS011;52218;51.224;-2.328;2022-12-11T21:30:43;10.60;;;7.25;;
65073;SDS011;52218;51.224;-2.328;2022-12-11T21:34:25;10.43;;;7.07;;
65073;SDS011;52218;51.224;-2.328;2022-12-11T21:38:07;11.82;;;7.78;;
65073;SDS011;52218;51.224;-2.328;2022-12-11T21:41:50;8.23;;;6.07;;
65073;SDS011;52218;51.224;-2.328;2022-12-11T21:45:33;8.20;;;4.80;;
65073;SDS011;52218;51.224;-2.328;2022-12-11T21:49:37;5.88;;;4.30;;
65073;SDS011;52218;51.224;-2.328;2022-12-11T21:53:19;6.28;;;4.65;;
65073;SDS011;52218;51.224;-2.328;2022-12-11T21:57:01;5.97;;;4.47;;
65073;SDS011;52218;51.224;-2.328;2022-12-11T22:00:43;7.05;;;4.90;;
65073;SDS011;52218;51.224;-2.328;2022-12-11T22:04:26;7.43;;;5.80;;
65073;SDS011;52218;51.224;-2.328;2022-12-11T22:08:08;7.35;;;5.55;;
65073;SDS011;52218;51.224;-2.328;2022-12-11T22:11:50;8.23;;;5.30;;
65073;SDS011;52218;51.224;-2.328;2022-12-11T22:15:38;6.78;;;5.30;;
65073;SDS011;52218;51.224;-2.328;2022-12-11T22:19:20;7.90;;;5.50;;
65073;SDS011;52218;51.224;-2.328;2022-12-11T22:23:02;7.57;;;5.40;;
65073;SDS011;52218;51.224;-2.328;2022-12-11T22:26:44;8.43;;;5.70;;
65073;SDS011;52218;51.224;-2.328;2022-12-11T22:30:26;8.20;;;5.88;;
65073;SDS011;52218;51.224;-2.328;2022-12-11T22:34:09;7.82;;;5.32;;
65073;SDS011;52218;51.224;-2.328;2022-12-11T22:37:51;7.38;;;5.68;;
65073;SDS011;52218;51.224;-2.328;2022-12-11T22:41:33;8.63;;;5.38;;
65073;SDS011;52218;51.224;-2.328;2022-12-11T22:45:22;8.27;;;5.63;;
65073;SDS011;52218;51.224;-2.328;2022-12-11T22:49:04;8.80;;;5.80;;
65073;SDS011;52218;51.224;-2.328;2022-12-11T22:52:46;9.32;;;6.18;;
65073;SDS011;52218;51.224;-2.328;2022-12-11T22:56:28;9.50;;;6.00;;
65073;SDS011;52218;51.224;-2.328;2022-12-11T23:00:11;8.50;;;5.72;;
65073;SDS011;52218;51.224;-2.328;2022-12-11T23:03:54;7.88;;;5.80;;
65073;SDS011;52218;51.224;-2.328;2022-12-11T23:07:36;7.68;;;6.07;;
65073;SDS011;52218;51.224;-2.328;2022-12-11T23:11:20;7.82;;;5.32;;
65073;SDS011;52218;51.224;-2.328;2022-12-11T23:15:05;8.18;;;5.57;;
65073;SDS011;52218;51.224;-2.328;2022-12-11T23:18:48;8.75;;;5.88;;
65073;SDS011;52218;51.224;-2.328;2022-12-11T23:22:30;8.15;;;5.95;;